Time;durP1;ratioP1;P1;durP2;ratioP2;P2;SDS_P1;SDS_P2;PMS_P1;PMS_P2;Temp;Humidity;BMP_temperature;BMP_pressure;BME280_temperature;BME280_humidity;BME280_pressure;Samples;Min_cycle;Max_cycle;Signal;HPM_P1;HPM_P2
2022/09/11 00:01:56;;;;;;;54.90;33.88;;;;;;;;;;5052495;28;20090;-63
2022/09/11 00:04:25;;;;;;;56.55;36.70;;;;;;;;;;5052890;28;20429;-63
2022/09/11 00:06:51;;;;;;;62.22;36.88;;;;;;;;;;5052982;28;20066;-63
2022/09/11 00:09:17;;;;;;;58.42;37.40;;;;;;;;;;5052761;28;20025;-63
2022/09/11 00:11:43;;;;;;;59.35;34.83;;;;;;;;;;5053103;28;20029;-64
2022/09/11 00:14:12;;;;;;;54.00;36.50;;;;;;;;;;5052079;28;20028;-63
2022/09/11 00:16:38;;;;;;;;;;;;;;;;;;5053989;28;20021;-63
2022/09/11 00:19:10;;;;;;;63.00;37.45;;;;;;;;;;5053194;28;20361;-63
2022/09/11 00:21:36;;;;;;;63.45;38.92;;;;;;;;;;5053655;28;20049;-63
2022/09/11 00:24:02;;;;;;;62.50;38.00;;;;;;;;;;5053257;28;20656;-63
2022/09/11 00:26:28;;;;;;;66.03;39.65;;;;;;;;;;5048477;28;20051;-63
2022/09/11 00:28:54;;;;;;;60.80;38.70;;;;;;;;;;5052957;28;20028;-63
2022/09/11 00:31:23;;;;;;;64.25;37.53;;;;;;;;;;5051760;28;20025;-64
2022/09/11 00:33:50;;;;;;;72.38;39.75;;;;;;;;;;5053169;28;20021;-63
2022/09/11 00:36:20;;;;;;;61.75;39.10;;;;;;;;;;5052970;28;20074;-62
2022/09/11 00:38:47;;;;;;;66.10;39.15;;;;;;;;;;5051573;28;20028;-63
2022/09/11 00:41:15;;;;;;;61.42;36.90;;;;;;;;;;5052708;28;20021;-64
2022/09/11 00:43:50;;;;;;;65.03;41.20;;;;;;;;;;5052320;28;20017;-63
2022/09/11 00:46:16;;;;;;;66.28;39.40;;;;;;;;;;5052213;28;20025;-63
2022/09/11 00:48:43;;;;;;;71.28;41.72;;;;;;;;;;5052120;28;20079;-62
2022/09/11 00:51:09;;;;;;;70.65;40.70;;;;;;;;;;5052354;28;20385;-63
2022/09/11 00:53:37;;;;;;;64.40;40.35;;;;;;;;;;5051798;28;20065;-63
2022/09/11 00:56:08;;;;;;;69.40;41.10;;;;;;;;;;5050879;28;20099;-62
2022/09/11 00:58:37;;;;;;;70.28;40.85;;;;;;;;;;5051928;28;20382;-63
2022/09/11 01:01:03;;;;;;;83.47;44.65;;;;;;;;;;5050850;28;20044;-64
2022/09/11 01:03:31;;;;;;;71.90;40.95;;;;;;;;;;5050121;28;20032;-63
2022/09/11 01:05:58;;;;;;;73.25;41.97;;;;;;;;;;5050646;28;20029;-64
2022/09/11 01:08:24;;;;;;;70.03;41.50;;;;;;;;;;5050544;28;20183;-62
2022/09/11 01:11:09;;;;;;;68.70;39.42;;;;;;;;;;5051767;28;20057;-63
2022/09/11 01:14:07;;;;;;;68.53;39.70;;;;;;;;;;5051776;28;20496;-62
2022/09/11 01:16:38;;;;;;;69.47;40.53;;;;;;;;;;5018037;28;20386;-63
2022/09/11 01:19:13;;;;;;;68.88;38.08;;;;;;;;;;5051612;28;20473;-62
2022/09/11 01:21:46;;;;;;;65.53;38.83;;;;;;;;;;5051645;28;20028;-62
2022/09/11 01:24:35;;;;;;;78.60;41.92;;;;;;;;;;5050928;28;20420;-63
2022/09/11 01:27:20;;;;;;;67.60;39.45;;;;;;;;;;5043493;28;20056;-62
2022/09/11 01:29:51;;;;;;;63.75;38.42;;;;;;;;;;5051547;28;20036;-63
2022/09/11 01:32:21;;;;;;;70.35;39.15;;;;;;;;;;5051341;28;20033;-63
2022/09/11 01:34:56;;;;;;;78.90;40.15;;;;;;;;;;5051419;28;20036;-62
2022/09/11 01:37:24;;;;;;;68.50;40.00;;;;;;;;;;5051378;28;20025;-62
2022/09/11 01:39:56;;;;;;;66.82;38.83;;;;;;;;;;5051972;28;20108;-63
2022/09/11 01:42:23;;;;;;;73.72;43.15;;;;;;;;;;5055536;28;20028;-62
2022/09/11 01:44:54;;;;;;;75.65;40.75;;;;;;;;;;5054175;28;20028;-63
2022/09/11 01:47:21;;;;;;;80.40;43.35;;;;;;;;;;5054860;28;20032;-63
2022/09/11 01:49:51;;;;;;;67.38;40.97;;;;;;;;;;5055267;28;20032;-63
2022/09/11 01:52:19;;;;;;;69.97;41.13;;;;;;;;;;5054958;28;20025;-64
2022/09/11 01:54:50;;;;;;;69.75;41.70;;;;;;;;;;5055125;28;20025;-62
2022/09/11 01:57:20;;;;;;;68.70;40.72;;;;;;;;;;5054695;28;20082;-62
2022/09/11 01:59:48;;;;;;;70.63;40.58;;;;;;;;;;5055002;28;20036;-62
2022/09/11 02:02:14;;;;;;;;;;;;;;;;;;5055228;28;20040;-63
2022/09/11 02:04:54;;;;;;;75.60;42.60;;;;;;;;;;5054933;28;20343;-63
2022/09/11 02:07:24;;;;;;;68.38;38.05;;;;;;;;;;5054947;28;20063;-63
2022/09/11 02:09:54;;;;;;;71.00;39.85;;;;;;;;;;5053569;28;20124;-63
2022/09/11 02:12:23;;;;;;;68.68;40.08;;;;;;;;;;5055034;28;20492;-63
2022/09/11 02:14:51;;;;;;;77.82;42.47;;;;;;;;;;5054984;28;20112;-63
2022/09/11 02:17:17;;;;;;;73.40;41.28;;;;;;;;;;5054651;28;20025;-63
2022/09/11 02:19:43;;;;;;;71.93;40.25;;;;;;;;;;5055165;28;20082;-63
2022/09/11 02:22:09;;;;;;;77.53;42.33;;;;;;;;;;5054965;28;20186;-63
2022/09/11 02:24:35;;;;;;;70.20;38.90;;;;;;;;;;5054794;28;20041;-65
2022/09/11 02:27:02;;;;;;;71.07;39.45;;;;;;;;;;5054974;28;20124;-63
2022/09/11 02:29:28;;;;;;;76.72;42.30;;;;;;;;;;5054593;28;20032;-63
2022/09/11 02:31:54;;;;;;;69.47;39.38;;;;;;;;;;5055098;28;20111;-62
2022/09/11 02:34:25;;;;;;;77.70;42.70;;;;;;;;;;5054814;28;20408;-63
2022/09/11 02:37:01;;;;;;;84.50;43.22;;;;;;;;;;5055074;28;20025;-63
2022/09/11 02:39:36;;;;;;;77.28;42.00;;;;;;;;;;5053754;28;20397;-63
2022/09/11 02:42:17;;;;;;;70.10;40.28;;;;;;;;;;5054868;28;20025;-63
2022/09/11 02:44:50;;;;;;;76.90;42.15;;;;;;;;;;5054833;28;20040;-63
2022/09/11 02:47:19;;;;;;;88.28;45.38;;;;;;;;;;5054146;28;20029;-63
2022/09/11 02:50:08;;;;;;;80.40;42.10;;;;;;;;;;5053557;28;20399;-63
2022/09/11 02:52:53;;;;;;;91.18;44.83;;;;;;;;;;5045105;28;20067;-63
2022/09/11 02:55:37;;;;;;;76.07;41.88;;;;;;;;;;5054166;28;20013;-63
2022/09/11 02:58:07;;;;;;;81.03;42.95;;;;;;;;;;5053506;28;20058;-63
2022/09/11 03:00:34;;;;;;;83.28;43.08;;;;;;;;;;5054043;28;20029;-63
2022/09/11 03:03:00;;;;;;;90.68;46.50;;;;;;;;;;5053893;28;20021;-63
2022/09/11 03:05:27;;;;;;;85.75;45.03;;;;;;;;;;5053839;28;20031;-63
2022/09/11 03:07:53;;;;;;;98.22;49.05;;;;;;;;;;5052944;28;20429;-63
2022/09/11 03:10:20;;;;;;;89.95;46.90;;;;;;;;;;5053435;28;20025;-64
2022/09/11 03:12:46;;;;;;;110.35;50.97;;;;;;;;;;5053810;28;20037;-63
2022/09/11 03:15:12;;;;;;;99.72;48.92;;;;;;;;;;5053817;28;20441;-63
2022/09/11 03:17:38;;;;;;;105.10;53.13;;;;;;;;;;5053346;28;20071;-64
2022/09/11 03:20:04;;;;;;;120.13;53.38;;;;;;;;;;5052334;28;20028;-63
2022/09/11 03:22:30;;;;;;;113.10;52.72;;;;;;;;;;5053622;28;20112;-63
2022/09/11 03:24:56;;;;;;;109.80;53.28;;;;;;;;;;5053338;28;20021;-63
2022/09/11 03:27:22;;;;;;;164.68;53.30;;;;;;;;;;5053057;28;20025;-63
2022/09/11 03:29:48;;;;;;;114.07;50.33;;;;;;;;;;5053520;28;20017;-64
2022/09/11 03:32:15;;;;;;;105.18;47.53;;;;;;;;;;5053444;28;20461;-63
2022/09/11 03:34:41;;;;;;;135.90;51.13;;;;;;;;;;5053360;28;20052;-64
2022/09/11 03:37:07;;;;;;;105.32;49.45;;;;;;;;;;5053445;28;20036;-63
2022/09/11 03:39:33;;;;;;;114.18;48.92;;;;;;;;;;5051733;28;20052;-64
2022/09/11 03:41:59;;;;;;;128.32;53.25;;;;;;;;;;5053113;28;20021;-63
2022/09/11 03:44:26;;;;;;;144.43;49.95;;;;;;;;;;5053366;28;20512;-63
2022/09/11 03:46:52;;;;;;;105.22;48.90;;;;;;;;;;5053163;28;20095;-63
2022/09/11 03:49:19;;;;;;;106.20;49.50;;;;;;;;;;5052961;28;20384;-64
2022/09/11 03:51:46;;;;;;;106.18;45.28;;;;;;;;;;5053017;28;20079;-63
2022/09/11 03:54:14;;;;;;;94.80;47.78;;;;;;;;;;5053197;28;20017;-64
2022/09/11 03:56:41;;;;;;;96.30;48.50;;;;;;;;;;5052151;28;20056;-62
2022/09/11 03:59:08;;;;;;;89.80;46.88;;;;;;;;;;5052720;28;20056;-63
2022/09/11 04:01:34;;;;;;;90.82;47.55;;;;;;;;;;5052782;28;20063;-63
2022/09/11 04:04:01;;;;;;;112.03;50.75;;;;;;;;;;5052715;28;20035;-64
2022/09/11 04:06:27;;;;;;;94.82;45.63;;;;;;;;;;5051383;28;20120;-63
2022/09/11 04:08:53;;;;;;;98.20;46.53;;;;;;;;;;5052538;28;20056;-63
2022/09/11 04:11:19;;;;;;;86.68;43.65;;;;;;;;;;5052668;28;20078;-64
2022/09/11 04:13:45;;;;;;;84.25;43.03;;;;;;;;;;5053129;28;20021;-64
2022/09/11 04:16:13;;;;;;;81.60;43.85;;;;;;;;;;5054014;28;20025;-64
2022/09/11 04:18:40;;;;;;;79.33;43.10;;;;;;;;;;5052538;28;20029;-64
2022/09/11 04:21:06;;;;;;;108.28;48.13;;;;;;;;;;5054534;28;20048;-63
2022/09/11 04:23:32;;;;;;;122.47;44.88;;;;;;;;;;5054767;28;20046;-63
2022/09/11 04:25:59;;;;;;;114.28;43.15;;;;;;;;;;5054604;28;20061;-63
2022/09/11 04:28:28;;;;;;;132.35;44.30;;;;;;;;;;5053347;28;20031;-63
2022/09/11 04:30:58;;;;;;;196.18;50.67;;;;;;;;;;5053168;28;20071;-64
2022/09/11 04:33:24;;;;;;;114.50;49.75;;;;;;;;;;5052547;28;20017;-63
2022/09/11 04:35:50;;;;;;;117.75;44.72;;;;;;;;;;5052702;28;20092;-64
2022/09/11 04:38:17;;;;;;;101.03;44.88;;;;;;;;;;5052018;28;20021;-63
2022/09/11 04:40:44;;;;;;;160.15;47.70;;;;;;;;;;5051934;28;20021;-62
2022/09/11 04:43:10;;;;;;;108.45;40.65;;;;;;;;;;5052408;28;20035;-62
2022/09/11 04:45:37;;;;;;;82.45;40.08;;;;;;;;;;5052269;28;20021;-63
2022/09/11 04:48:03;;;;;;;118.65;42.20;;;;;;;;;;5049698;28;20068;-63
2022/09/11 04:50:30;;;;;;;90.45;42.63;;;;;;;;;;5051767;28;20139;-63
2022/09/11 04:52:57;;;;;;;89.05;42.40;;;;;;;;;;5052205;28;20108;-62
2022/09/11 04:55:23;;;;;;;121.55;45.80;;;;;;;;;;5052143;28;20428;-63
2022/09/11 04:57:49;;;;;;;109.30;45.22;;;;;;;;;;5051331;28;20053;-62
2022/09/11 05:00:15;;;;;;;82.35;41.83;;;;;;;;;;5052145;28;20334;-63
2022/09/11 05:02:41;;;;;;;108.13;42.42;;;;;;;;;;5052151;28;20017;-63
2022/09/11 05:05:08;;;;;;;100.85;43.80;;;;;;;;;;5052024;28;20151;-62
2022/09/11 05:07:34;;;;;;;79.85;40.67;;;;;;;;;;5051551;28;20104;-63
2022/09/11 05:10:00;;;;;;;92.68;40.90;;;;;;;;;;5051885;28;20074;-63
2022/09/11 05:12:27;;;;;;;86.88;40.25;;;;;;;;;;5050792;28;20021;-63
2022/09/11 05:14:53;;;;;;;76.63;42.15;;;;;;;;;;5052593;28;20025;-64
2022/09/11 05:17:19;;;;;;;114.88;43.78;;;;;;;;;;5055608;28;20029;-63
2022/09/11 05:19:45;;;;;;;96.80;38.95;;;;;;;;;;5055829;28;20489;-63
2022/09/11 05:22:11;;;;;;;88.63;38.85;;;;;;;;;;5055543;28;20082;-63
2022/09/11 05:24:38;;;;;;;105.18;43.03;;;;;;;;;;5055131;28;20028;-63
2022/09/11 05:27:05;;;;;;;170.05;49.95;;;;;;;;;;5055758;28;20077;-64
2022/09/11 05:29:31;;;;;;;84.25;41.17;;;;;;;;;;5055523;28;20021;-64
2022/09/11 05:31:57;;;;;;;68.88;37.60;;;;;;;;;;5055911;28;20032;-63
2022/09/11 05:34:27;;;;;;;86.70;43.20;;;;;;;;;;5055572;28;20111;-64
2022/09/11 05:36:54;;;;;;;74.55;39.70;;;;;;;;;;5054110;28;20025;-64
2022/09/11 05:39:20;;;;;;;85.28;39.75;;;;;;;;;;5055234;28;20048;-63
2022/09/11 05:41:49;;;;;;;70.20;35.78;;;;;;;;;;5055520;28;20025;-63
2022/09/11 05:44:16;;;;;;;111.32;39.50;;;;;;;;;;5055287;28;20108;-63
2022/09/11 05:46:42;;;;;;;81.82;35.50;;;;;;;;;;5055218;28;20424;-63
2022/09/11 05:49:08;;;;;;;79.68;36.30;;;;;;;;;;5053455;28;20025;-63
2022/09/11 05:51:36;;;;;;;78.95;36.63;;;;;;;;;;5055008;28;20091;-63
2022/09/11 05:54:02;;;;;;;79.47;35.55;;;;;;;;;;5054924;28;20025;-63
2022/09/11 05:56:29;;;;;;;68.85;35.08;;;;;;;;;;5054798;28;20036;-63
2022/09/11 05:58:54;;;;;;;98.07;38.30;;;;;;;;;;5054761;22;20045;-58
2022/09/11 06:01:22;;;;;;;70.30;35.78;;;;;;;;;;5003404;28;20022;-60
2022/09/11 06:03:48;;;;;;;72.32;34.03;;;;;;;;;;5004960;28;20029;-55
2022/09/11 06:06:15;;;;;;;75.57;40.15;;;;;;;;;;5011488;28;20042;-58
2022/09/11 06:08:42;;;;;;;93.03;55.63;;;;;;;;;;5014388;28;20162;-60
2022/09/11 06:11:09;;;;;;;71.50;38.70;;;;;;;;;;5010926;28;20463;-58
2022/09/11 06:13:37;;;;;;;66.13;36.38;;;;;;;;;;5002121;28;20033;-59
2022/09/11 06:16:04;;;;;;;70.97;38.17;;;;;;;;;;5003552;28;20098;-61
2022/09/11 06:18:30;;;;;;;61.92;33.78;;;;;;;;;;5002059;28;20018;-60
2022/09/11 06:21:00;;;;;;;71.75;38.42;;;;;;;;;;5003563;28;20146;-58
2022/09/11 06:23:26;;;;;;;65.50;35.90;;;;;;;;;;5002969;28;20052;-60
2022/09/11 06:25:53;;;;;;;66.25;33.70;;;;;;;;;;5002829;28;20471;-58
2022/09/11 06:28:20;;;;;;;59.55;34.00;;;;;;;;;;5005218;28;20060;-60
2022/09/11 06:30:48;;;;;;;58.92;33.78;;;;;;;;;;5002863;28;20116;-57
2022/09/11 06:33:14;;;;;;;56.35;33.55;;;;;;;;;;5000695;28;20097;-58
2022/09/11 06:35:40;;;;;;;63.20;35.55;;;;;;;;;;5003555;28;20097;-59
2022/09/11 06:38:06;;;;;;;58.78;35.22;;;;;;;;;;5004320;28;20014;-56
2022/09/11 06:40:32;;;;;;;59.63;36.22;;;;;;;;;;4992835;28;20026;-61
2022/09/11 06:42:57;;;;;;;57.45;32.13;;;;;;;;;;4994391;28;20022;-60
2022/09/11 06:45:24;;;;;;;62.15;33.97;;;;;;;;;;4994210;28;20029;-58
2022/09/11 06:47:51;;;;;;;58.28;32.05;;;;;;;;;;4993740;28;20050;-58
2022/09/11 06:50:16;;;;;;;53.60;31.38;;;;;;;;;;4994014;28;20394;-56
2022/09/11 06:52:43;;;;;;;51.97;29.48;;;;;;;;;;4994247;28;20113;-57
2022/09/11 06:55:13;;;;;;;55.25;30.08;;;;;;;;;;4994138;28;20106;-60
2022/09/11 06:57:40;;;;;;;50.88;31.00;;;;;;;;;;4993886;28;20027;-57
2022/09/11 07:00:06;;;;;;;55.17;33.30;;;;;;;;;;4993827;28;20038;-60
2022/09/11 07:02:32;;;;;;;51.25;29.75;;;;;;;;;;4999226;28;20026;-66
2022/09/11 07:04:59;;;;;;;55.20;30.80;;;;;;;;;;5011236;28;20033;-60
2022/09/11 07:07:25;;;;;;;59.85;33.17;;;;;;;;;;5013072;28;20418;-61
2022/09/11 07:09:51;;;;;;;54.47;31.77;;;;;;;;;;5013240;28;20053;-61
2022/09/11 07:12:22;;;;;;;57.38;33.47;;;;;;;;;;5013418;28;20018;-59
2022/09/11 07:14:48;;;;;;;58.28;34.17;;;;;;;;;;5013400;28;20053;-60
2022/09/11 07:17:14;;;;;;;54.10;31.77;;;;;;;;;;5012984;28;20062;-61
2022/09/11 07:19:42;;;;;;;54.80;31.77;;;;;;;;;;5013030;28;20026;-60
2022/09/11 07:22:08;;;;;;;54.20;30.98;;;;;;;;;;5013116;28;20037;-61
2022/09/11 07:24:34;;;;;;;56.53;32.33;;;;;;;;;;5013072;28;20025;-61
2022/09/11 07:27:00;;;;;;;57.45;33.53;;;;;;;;;;5013075;28;20041;-60
2022/09/11 07:29:27;;;;;;;55.60;31.45;;;;;;;;;;5012699;28;20042;-62
2022/09/11 07:31:56;;;;;;;56.78;32.25;;;;;;;;;;5013206;28;20030;-61
2022/09/11 07:34:22;;;;;;;54.40;32.80;;;;;;;;;;5012604;28;20487;-61
2022/09/11 07:36:50;;;;;;;49.55;29.95;;;;;;;;;;5000290;28;20076;-62
2022/09/11 07:39:16;;;;;;;50.65;32.38;;;;;;;;;;5001569;28;20065;-61
2022/09/11 07:41:42;;;;;;;55.63;31.48;;;;;;;;;;4993393;28;20035;-61
2022/09/11 07:44:08;;;;;;;50.03;30.60;;;;;;;;;;4993677;28;20030;-62
2022/09/11 07:46:34;;;;;;;56.30;31.92;;;;;;;;;;4994012;28;20092;-61
2022/09/11 07:49:04;;;;;;;50.95;30.25;;;;;;;;;;5003735;28;20022;-62
2022/09/11 07:51:30;;;;;;;48.72;28.98;;;;;;;;;;4993041;28;20018;-61
2022/09/11 07:53:58;;;;;;;49.05;30.73;;;;;;;;;;4992940;28;20069;-60
2022/09/11 07:56:25;;;;;;;52.22;29.92;;;;;;;;;;4991828;28;20089;-60
2022/09/11 07:58:51;;;;;;;46.17;27.35;;;;;;;;;;4992728;28;20042;-62
2022/09/11 08:01:19;;;;;;;39.67;24.42;;;;;;;;;;4994431;28;20037;-61
2022/09/11 08:03:45;;;;;;;42.90;25.33;;;;;;;;;;5001302;28;20026;-62
2022/09/11 08:06:13;;;;;;;43.90;24.25;;;;;;;;;;5011346;28;20022;-62
2022/09/11 08:08:39;;;;;;;34.28;21.83;;;;;;;;;;5003697;28;20025;-64
2022/09/11 08:11:16;;;;;;;32.70;21.42;;;;;;;;;;5012738;28;20022;-61
2022/09/11 08:13:42;;;;;;;31.08;20.38;;;;;;;;;;5011770;28;20136;-61
2022/09/11 08:16:08;;;;;;;34.55;20.95;;;;;;;;;;5012506;28;20112;-61
2022/09/11 08:18:35;;;;;;;28.88;18.40;;;;;;;;;;5011869;28;20057;-61
2022/09/11 08:21:02;;;;;;;31.85;20.95;;;;;;;;;;5012197;28;20517;-59
2022/09/11 08:23:30;;;;;;;29.33;17.85;;;;;;;;;;5010798;28;20034;-60
2022/09/11 08:26:02;;;;;;;27.00;17.10;;;;;;;;;;5012085;28;20100;-61
2022/09/11 08:28:29;;;;;;;26.35;17.60;;;;;;;;;;5011789;28;20570;-62
2022/09/11 08:30:58;;;;;;;27.42;17.65;;;;;;;;;;5010830;28;20026;-61
2022/09/11 08:33:24;;;;;;;28.80;19.15;;;;;;;;;;5010481;28;20024;-61
2022/09/11 08:35:51;;;;;;;27.00;18.33;;;;;;;;;;5012299;28;20018;-61
2022/09/11 08:38:17;;;;;;;27.88;18.27;;;;;;;;;;5011913;28;20075;-63
2022/09/11 08:40:44;;;;;;;29.58;18.88;;;;;;;;;;5011987;28;20029;-64
2022/09/11 08:43:18;;;;;;;27.63;18.00;;;;;;;;;;5010752;28;20033;-61
2022/09/11 08:45:44;;;;;;;27.23;17.10;;;;;;;;;;5011933;28;20033;-62
2022/09/11 08:48:11;;;;;;;27.95;17.95;;;;;;;;;;5011445;28;20041;-61
2022/09/11 08:50:39;;;;;;;27.75;18.27;;;;;;;;;;4994742;28;20034;-60
2022/09/11 08:53:07;;;;;;;27.83;18.38;;;;;;;;;;4995188;28;20023;-61
2022/09/11 08:55:38;;;;;;;26.63;18.05;;;;;;;;;;4996262;28;20045;-61
2022/09/11 08:58:05;;;;;;;27.75;17.80;;;;;;;;;;4996006;28;20495;-62
2022/09/11 09:00:33;;;;;;;26.65;17.10;;;;;;;;;;4647201;28;9999912;-60
2022/09/11 09:03:01;;;;;;;27.83;17.38;;;;;;;;;;4999238;28;20034;-60
2022/09/11 09:05:31;;;;;;;27.73;18.63;;;;;;;;;;5003209;28;20041;-62
2022/09/11 09:07:57;;;;;;;28.90;17.05;;;;;;;;;;5004678;28;20133;-61
2022/09/11 09:10:30;;;;;;;23.52;16.20;;;;;;;;;;4991705;28;20034;-61
2022/09/11 09:13:05;;;;;;;26.27;17.42;;;;;;;;;;4992981;28;20053;-62
2022/09/11 09:15:44;;;;;;;25.25;16.77;;;;;;;;;;4992840;28;20037;-61
2022/09/11 09:18:10;;;;;;;25.77;16.30;;;;;;;;;;4981582;28;20035;-63
2022/09/11 09:20:44;;;;;;;25.92;16.27;;;;;;;;;;4973306;28;20472;-62
2022/09/11 09:23:12;;;;;;;26.45;17.58;;;;;;;;;;4973146;28;20081;-62
2022/09/11 09:25:41;;;;;;;26.25;16.45;;;;;;;;;;4973401;28;20502;-62
2022/09/11 09:28:07;;;;;;;;;;;;;;;;;;4973684;28;20033;-60
2022/09/11 09:30:46;;;;;;;25.25;16.80;;;;;;;;;;4986289;28;19909;-61
2022/09/11 09:33:39;;;;;;;27.67;17.23;;;;;;;;;;5000382;28;20173;-62
2022/09/11 09:36:16;;;;;;;26.13;17.23;;;;;;;;;;4990798;28;20398;-62
2022/09/11 09:38:43;;;;;;;24.85;16.42;;;;;;;;;;5012381;28;20075;-63
2022/09/11 09:41:08;;;;;;;23.67;15.50;;;;;;;;;;5012304;28;20502;-61
2022/09/11 09:43:44;;;;;;;25.52;16.45;;;;;;;;;;5012517;28;20018;-62
2022/09/11 09:46:15;;;;;;;24.88;16.25;;;;;;;;;;5014580;28;20034;-61
2022/09/11 09:48:41;;;;;;;24.00;15.63;;;;;;;;;;5010974;28;20030;-61
2022/09/11 09:51:11;;;;;;;27.77;18.30;;;;;;;;;;4993246;28;20443;-62
2022/09/11 09:53:40;;;;;;;26.25;17.45;;;;;;;;;;4994680;28;20026;-63
2022/09/11 09:56:06;;;;;;;25.45;16.55;;;;;;;;;;4994030;28;20386;-65
2022/09/11 09:58:53;;;;;;;25.73;17.05;;;;;;;;;;4993250;28;20030;-64
2022/09/11 10:01:45;;;;;;;23.63;15.63;;;;;;;;;;4994332;28;20031;-66
2022/09/11 10:04:21;;;;;;;24.45;16.23;;;;;;;;;;4990080;28;20035;-65
2022/09/11 10:06:52;;;;;;;22.73;15.30;;;;;;;;;;4994625;28;20038;-60
2022/09/11 10:09:22;;;;;;;23.67;16.23;;;;;;;;;;4994322;28;20118;-61
2022/09/11 10:12:06;;;;;;;25.42;16.92;;;;;;;;;;4994804;28;20018;-59
2022/09/11 10:14:34;;;;;;;24.05;17.27;;;;;;;;;;4994696;28;20034;-61
2022/09/11 10:17:01;;;;;;;25.23;17.02;;;;;;;;;;4994862;28;20098;-61
2022/09/11 10:19:38;;;;;;;25.55;17.75;;;;;;;;;;4994468;28;20482;-60
2022/09/11 10:22:20;;;;;;;26.60;18.20;;;;;;;;;;4994469;28;20033;-60
2022/09/11 10:24:51;;;;;;;27.27;17.48;;;;;;;;;;4994314;28;20034;-59
2022/09/11 10:27:18;;;;;;;26.90;16.95;;;;;;;;;;4993725;28;20395;-63
2022/09/11 10:29:49;;;;;;;26.63;17.70;;;;;;;;;;4992859;28;20483;-66
2022/09/11 10:32:17;;;;;;;25.13;17.23;;;;;;;;;;4993956;28;20380;-66
2022/09/11 10:34:43;;;;;;;27.05;17.33;;;;;;;;;;4993807;28;20446;-63
2022/09/11 10:37:10;;;;;;;26.67;17.15;;;;;;;;;;4993149;28;20046;-64
2022/09/11 10:39:36;;;;;;;26.25;18.67;;;;;;;;;;4993815;28;20054;-65
2022/09/11 10:42:12;;;;;;;24.83;17.98;;;;;;;;;;4994238;28;20526;-65
2022/09/11 10:44:41;;;;;;;23.00;16.73;;;;;;;;;;4994206;28;20066;-65
2022/09/11 10:47:28;;;;;;;23.83;17.38;;;;;;;;;;4993678;28;20113;-64
2022/09/11 10:50:13;;;;;;;24.67;17.20;;;;;;;;;;4992412;28;20075;-65
2022/09/11 10:52:46;;;;;;;24.33;16.90;;;;;;;;;;4992729;28;20061;-64
2022/09/11 10:55:14;;;;;;;24.42;16.25;;;;;;;;;;4994013;28;20026;-65
2022/09/11 10:57:44;;;;;;;23.00;15.83;;;;;;;;;;4993736;28;20076;-66
2022/09/11 11:00:20;;;;;;;22.05;15.05;;;;;;;;;;4993586;28;20085;-65
2022/09/11 11:02:46;;;;;;;22.02;15.13;;;;;;;;;;4994002;28;20042;-65
2022/09/11 11:05:24;;;;;;;26.33;15.43;;;;;;;;;;4993579;28;20053;-63
2022/09/11 11:07:54;;;;;;;22.65;15.63;;;;;;;;;;4993339;28;20109;-65
2022/09/11 11:10:23;;;;;;;23.80;16.88;;;;;;;;;;4993593;28;20042;-65
2022/09/11 11:12:58;;;;;;;22.27;16.40;;;;;;;;;;4992602;28;20027;-66
2022/09/11 11:15:26;;;;;;;23.88;15.82;;;;;;;;;;4992608;28;20026;-65
2022/09/11 11:17:53;;;;;;;19.88;14.98;;;;;;;;;;4992028;28;20080;-65
2022/09/11 11:20:28;;;;;;;21.00;14.73;;;;;;;;;;4993337;28;20068;-65
2022/09/11 11:22:57;;;;;;;19.77;15.73;;;;;;;;;;4992257;28;20030;-62
2022/09/11 11:25:35;;;;;;;20.95;15.32;;;;;;;;;;4993544;28;20467;-67
2022/09/11 11:28:10;;;;;;;20.85;16.05;;;;;;;;;;4992954;28;20490;-66
2022/09/11 11:30:43;;;;;;;34.30;30.20;;;;;;;;;;4993472;28;20387;-66
2022/09/11 11:33:25;;;;;;;27.05;22.17;;;;;;;;;;4993206;28;20026;-64
2022/09/11 11:36:03;;;;;;;27.10;23.38;;;;;;;;;;4993039;28;20026;-64
2022/09/11 11:38:50;;;;;;;24.10;18.60;;;;;;;;;;4341488;28;10000978;-64
2022/09/11 11:41:25;;;;;;;21.27;15.88;;;;;;;;;;4991218;28;20238;-65
2022/09/11 11:43:52;;;;;;;20.67;15.70;;;;;;;;;;4990688;28;20033;-63
2022/09/11 11:46:30;;;;;;;21.40;15.88;;;;;;;;;;4992811;28;20482;-63
2022/09/11 11:49:00;;;;;;;22.88;18.38;;;;;;;;;;4991274;28;20061;-63
2022/09/11 11:51:27;;;;;;;22.20;15.23;;;;;;;;;;4993045;28;20125;-63
2022/09/11 11:53:54;;;;;;;20.15;14.43;;;;;;;;;;4991788;28;20041;-62
2022/09/11 11:56:27;;;;;;;19.38;14.35;;;;;;;;;;4992823;28;20031;-62
2022/09/11 11:58:59;;;;;;;19.80;13.50;;;;;;;;;;5019274;23;20521;-61
2022/09/11 12:01:32;;;;;;;19.63;14.05;;;;;;;;;;5029849;28;20535;-60
2022/09/11 12:04:08;;;;;;;19.45;14.35;;;;;;;;;;4681625;28;10000368;-61
2022/09/11 12:06:34;;;;;;;17.88;13.63;;;;;;;;;;5029773;28;20040;-61
2022/09/11 12:09:01;;;;;;;16.92;12.93;;;;;;;;;;5021659;28;20057;-61
2022/09/11 12:11:31;;;;;;;20.73;13.98;;;;;;;;;;5009418;28;20120;-60
2022/09/11 12:13:58;;;;;;;19.73;14.52;;;;;;;;;;5009667;28;20022;-61
2022/09/11 12:16:29;;;;;;;18.17;13.50;;;;;;;;;;5009239;28;20418;-61
2022/09/11 12:19:06;;;;;;;19.02;14.18;;;;;;;;;;5008492;28;20112;-61
2022/09/11 12:21:33;;;;;;;18.00;14.37;;;;;;;;;;5008001;28;20117;-62
2022/09/11 12:24:02;;;;;;;18.60;14.30;;;;;;;;;;5008962;28;20268;-61
2022/09/11 12:26:30;;;;;;;17.95;13.70;;;;;;;;;;5010377;28;20030;-61
2022/09/11 12:29:14;;;;;;;17.92;13.85;;;;;;;;;;5017140;28;20594;-60
2022/09/11 12:31:49;;;;;;;19.40;14.38;;;;;;;;;;5016712;28;20738;-62
2022/09/11 12:34:17;;;;;;;20.05;13.73;;;;;;;;;;5009171;28;20040;-62
2022/09/11 12:36:43;;;;;;;19.90;14.77;;;;;;;;;;5008790;28;20026;-62
2022/09/11 12:39:15;;;;;;;18.75;14.27;;;;;;;;;;5007201;28;20034;-61
2022/09/11 12:41:41;;;;;;;19.27;14.35;;;;;;;;;;5008754;28;20022;-61
2022/09/11 12:44:28;;;;;;;19.90;14.10;;;;;;;;;;5025623;28;20033;-61
2022/09/11 12:46:54;;;;;;;18.55;13.00;;;;;;;;;;5029507;28;20061;-67
2022/09/11 12:49:22;;;;;;;21.17;13.65;;;;;;;;;;5028597;28;20025;-61
2022/09/11 12:51:55;;;;;;;19.20;13.48;;;;;;;;;;5028715;28;20043;-61
2022/09/11 12:54:24;;;;;;;19.35;14.93;;;;;;;;;;5028706;28;20025;-61
2022/09/11 12:56:52;;;;;;;19.35;14.63;;;;;;;;;;5027723;28;20034;-60
2022/09/11 12:59:23;;;;;;;21.15;14.40;;;;;;;;;;5030017;28;20502;-61
2022/09/11 13:01:50;;;;;;;20.60;15.40;;;;;;;;;;5033310;28;20036;-60
2022/09/11 13:04:20;;;;;;;19.73;14.65;;;;;;;;;;5030882;28;20135;-62
2022/09/11 13:06:56;;;;;;;20.58;15.75;;;;;;;;;;5032058;28;20025;-59
2022/09/11 13:09:34;;;;;;;21.15;16.50;;;;;;;;;;4687152;28;10000208;-60
2022/09/11 13:12:19;;;;;;;23.08;17.70;;;;;;;;;;5028202;28;20087;-58
2022/09/11 13:14:46;;;;;;;23.35;17.35;;;;;;;;;;5028630;28;20056;-59
2022/09/11 13:17:13;;;;;;;22.75;17.98;;;;;;;;;;5028754;28;20037;-58
2022/09/11 13:19:39;;;;;;;23.35;16.92;;;;;;;;;;5029094;28;20088;-58
2022/09/11 13:22:20;;;;;;;23.05;17.55;;;;;;;;;;5028680;28;20104;-61
2022/09/11 13:24:47;;;;;;;21.55;16.08;;;;;;;;;;5030854;28;20029;-59
2022/09/11 13:27:17;;;;;;;21.98;16.30;;;;;;;;;;5029562;28;20091;-61
2022/09/11 13:29:43;;;;;;;23.33;17.40;;;;;;;;;;5031164;28;20025;-59
2022/09/11 13:32:10;;;;;;;23.63;17.27;;;;;;;;;;5029670;28;20056;-60
2022/09/11 13:34:37;;;;;;;21.05;16.67;;;;;;;;;;5029636;28;20079;-61
2022/09/11 13:37:08;;;;;;;24.23;18.80;;;;;;;;;;5030594;28;20033;-61
2022/09/11 13:39:35;;;;;;;21.52;16.95;;;;;;;;;;5034182;28;20103;-61
2022/09/11 13:42:02;;;;;;;23.25;18.17;;;;;;;;;;5034245;28;20044;-61
2022/09/11 13:44:38;;;;;;;22.30;17.67;;;;;;;;;;5033167;28;20030;-60
2022/09/11 13:47:06;;;;;;;19.88;16.10;;;;;;;;;;5034039;28;20029;-61
2022/09/11 13:49:34;;;;;;;19.70;16.50;;;;;;;;;;5033566;28;20021;-61
2022/09/11 13:52:03;;;;;;;20.15;16.20;;;;;;;;;;5034708;28;20029;-61
2022/09/11 13:54:31;;;;;;;21.65;17.35;;;;;;;;;;5034335;28;20060;-61
2022/09/11 13:56:57;;;;;;;22.33;16.57;;;;;;;;;;5034553;28;20028;-62
2022/09/11 13:59:40;;;;;;;23.20;17.40;;;;;;;;;;5032661;28;20292;-60
2022/09/11 14:02:15;;;;;;;21.83;17.13;;;;;;;;;;5034537;28;20501;-61
2022/09/11 14:04:42;;;;;;;20.15;15.95;;;;;;;;;;5034375;28;20075;-61
2022/09/11 14:07:21;;;;;;;22.45;17.13;;;;;;;;;;5034266;28;20025;-62
2022/09/11 14:09:59;;;;;;;21.23;17.08;;;;;;;;;;5034063;28;20044;-59
2022/09/11 14:12:26;;;;;;;20.75;17.33;;;;;;;;;;5033198;28;20037;-61
2022/09/11 14:14:54;;;;;;;20.77;17.33;;;;;;;;;;5034286;28;20101;-61
2022/09/11 14:17:20;;;;;;;22.85;17.58;;;;;;;;;;5033880;28;20275;-61
2022/09/11 14:19:49;;;;;;;22.70;17.27;;;;;;;;;;5034011;28;20394;-61
2022/09/11 14:22:27;;;;;;;23.92;17.25;;;;;;;;;;5033929;28;20490;-61
2022/09/11 14:24:55;;;;;;;21.30;16.73;;;;;;;;;;5034253;28;20034;-61
2022/09/11 14:27:21;;;;;;;;;;;;;;;;;;5034223;28;20075;-60
2022/09/11 14:29:51;;;;;;;23.65;17.48;;;;;;;;;;5033893;28;19943;-61